createdAt,value
2022-09-27T00:03:44.404Z,180
2022-09-27T00:08:44.427Z,112
2022-09-27T00:13:44.671Z,112
2022-09-27T00:18:44.647Z,135
2022-09-27T00:23:44.207Z,135
2022-09-27T00:28:44.467Z,135
2022-09-27T00:33:44.643Z,135
2022-09-27T00:38:43.859Z,158
2022-09-27T00:43:43.829Z,158
2022-09-27T00:48:44.017Z,135
2022-09-27T00:53:44.192Z,135
2022-09-27T00:58:44.381Z,112
2022-09-27T01:03:44.400Z,112
2022-09-27T01:08:44.638Z,135
2022-09-27T01:13:43.927Z,135
2022-09-27T01:18:44.050Z,112
2022-09-27T01:23:44.267Z,112
2022-09-27T01:28:44.282Z,135
2022-09-27T01:33:44.505Z,135
2022-09-27T01:38:43.861Z,90
2022-09-27T01:43:44.059Z,90
2022-09-27T01:48:44.468Z,270
2022-09-27T01:53:44.547Z,270
2022-09-27T01:58:44.554Z,270
2022-09-27T02:03:43.945Z,270
2022-09-27T02:08:44.129Z,270
2022-09-27T02:13:44.721Z,270
2022-09-27T02:18:44.020Z,270
2022-09-27T02:23:44.242Z,270
2022-09-27T02:28:44.436Z,270
2022-09-27T02:33:44.545Z,270
2022-09-27T02:38:44.065Z,270
2022-09-27T02:43:44.532Z,270
2022-09-27T02:48:44.871Z,90
2022-09-27T02:53:44.494Z,90
2022-09-27T02:58:44.782Z,90
2022-09-27T03:03:44.015Z,90
2022-09-27T03:08:44.579Z,90
2022-09-27T03:14:09.458Z,90
2022-09-27T03:18:44.757Z,90
2022-09-27T03:23:44.179Z,90
2022-09-27T03:28:44.688Z,135
2022-09-27T03:33:43.937Z,135
2022-09-27T03:38:44.201Z,135
2022-09-27T03:43:44.520Z,135
2022-09-27T03:48:44.659Z,135
2022-09-27T03:53:43.966Z,135
2022-09-27T03:58:44.472Z,135
2022-09-27T04:03:43.946Z,135
2022-09-27T04:08:44.120Z,135
2022-09-27T04:13:44.587Z,135
2022-09-27T04:18:44.025Z,135
2022-09-27T04:23:44.303Z,135
2022-09-27T04:28:44.088Z,135
2022-09-27T04:33:44.764Z,135
2022-09-27T04:38:44.162Z,135
2022-09-27T07:28:44.355Z,202
2022-09-27T07:33:44.743Z,202
2022-09-27T07:38:44.113Z,248
2022-09-27T07:43:44.357Z,248
2022-09-27T07:48:44.615Z,225
2022-09-27T07:53:44.824Z,225
2022-09-27T07:58:45.031Z,225
2022-09-27T08:03:44.273Z,225
2022-09-27T08:08:44.409Z,225
2022-09-27T08:13:44.714Z,225
2022-09-27T08:18:44.814Z,248
2022-09-27T08:23:44.133Z,248
2022-09-27T08:28:44.342Z,225
2022-09-27T08:33:44.448Z,225
2022-09-27T08:38:44.992Z,270
2022-09-27T08:43:44.110Z,270
2022-09-27T08:48:44.278Z,248
2022-09-27T08:53:44.894Z,248
2022-09-27T08:58:44.565Z,225
2022-09-27T09:03:44.229Z,225
2022-09-27T09:08:51.276Z,248
2022-09-27T09:13:44.167Z,248
2022-09-27T09:18:44.692Z,225
2022-09-27T09:23:45.031Z,225
2022-09-27T09:28:44.392Z,248
2022-09-27T09:33:44.866Z,248
2022-09-27T09:38:45.004Z,225
2022-09-27T09:43:44.699Z,225
2022-09-27T09:48:44.910Z,248
2022-09-27T09:53:44.248Z,248
2022-09-27T09:58:45.018Z,225
2022-09-27T10:03:44.563Z,225
2022-09-27T10:08:45.010Z,248
2022-09-27T10:13:44.438Z,248
2022-09-27T10:18:50.370Z,248
2022-09-27T10:23:44.567Z,248
2022-09-27T10:28:44.806Z,225
2022-09-27T10:33:44.978Z,225
2022-09-27T10:38:44.266Z,248
2022-09-27T10:43:44.604Z,248
2022-09-27T10:48:44.847Z,248
2022-09-27T10:53:45.081Z,248
2022-09-27T10:58:44.484Z,225
2022-09-27T11:03:44.609Z,225
2022-09-27T11:08:44.344Z,248
2022-09-27T11:13:44.766Z,248
2022-09-27T11:18:44.914Z,270
2022-09-27T11:23:45.013Z,270
2022-09-27T11:28:44.157Z,225
2022-09-27T11:33:44.352Z,225
2022-09-27T11:38:54.036Z,225
2022-09-27T11:43:44.720Z,225
2022-09-27T11:48:44.940Z,270
2022-09-27T11:53:45.097Z,270
2022-09-27T11:58:44.532Z,270
2022-09-27T12:03:44.689Z,270
2022-09-27T12:08:44.916Z,202
2022-09-27T12:13:44.242Z,202
2022-09-27T12:18:51.801Z,270
2022-09-27T12:23:44.180Z,270
2022-09-27T12:28:44.379Z,270
2022-09-27T12:33:44.533Z,270
2022-09-27T12:38:44.662Z,248
2022-09-27T12:43:49.860Z,248
2022-09-27T12:48:45.117Z,248
2022-09-27T12:53:44.513Z,248
2022-09-27T12:58:44.804Z,292
2022-09-27T13:03:45.053Z,292
2022-09-27T13:08:44.524Z,270
2022-09-27T13:13:45.010Z,270
2022-09-27T13:18:45.224Z,270
2022-09-27T13:23:45.115Z,270
2022-09-27T13:28:44.308Z,225
2022-09-27T13:33:44.431Z,225
2022-09-27T13:38:44.674Z,248
2022-09-27T13:43:44.159Z,248
2022-09-27T13:48:44.298Z,270
2022-09-27T13:53:44.482Z,270
2022-09-27T13:58:44.414Z,248
2022-09-27T14:03:44.766Z,248
2022-09-27T14:08:45.039Z,225
2022-09-27T14:13:44.441Z,225
2022-09-27T14:18:45.169Z,225
2022-09-27T14:23:44.328Z,225
2022-09-27T14:28:44.693Z,270
2022-09-27T14:33:44.865Z,270
2022-09-27T14:38:45.197Z,248
2022-09-27T14:43:44.667Z,248
2022-09-27T14:48:44.864Z,248
2022-09-27T14:53:44.625Z,248
2022-09-27T14:58:48.606Z,225
2022-09-27T15:03:45.281Z,225
2022-09-27T15:08:45.030Z,248
2022-09-27T15:13:44.643Z,248
2022-09-27T15:18:44.849Z,248
2022-09-27T15:23:44.726Z,248
2022-09-27T15:28:45.372Z,270
2022-09-27T15:33:44.270Z,270
2022-09-27T15:38:44.980Z,248
2022-09-27T15:43:44.526Z,248
2022-09-27T15:48:44.419Z,248
2022-09-27T15:53:44.805Z,248
2022-09-27T15:58:45.145Z,270
2022-09-27T16:03:44.682Z,270
2022-09-27T16:08:45.147Z,248
2022-09-27T16:13:44.865Z,248
2022-09-27T16:18:45.197Z,225
2022-09-27T16:23:44.477Z,225
2022-09-27T16:28:44.795Z,270
2022-09-27T16:33:45.317Z,270
2022-09-27T16:38:44.473Z,225
2022-09-27T16:43:44.683Z,225
2022-09-27T16:48:45.032Z,225
2022-09-27T16:53:44.405Z,225
2022-09-27T16:58:44.868Z,270
2022-09-27T17:03:44.915Z,270
2022-09-27T17:08:45.243Z,270
2022-09-27T17:13:44.566Z,270
2022-09-27T17:18:44.670Z,202
2022-09-27T17:23:45.014Z,202
2022-09-27T17:28:44.403Z,225
2022-09-27T17:33:44.569Z,225
2022-09-27T17:38:44.795Z,270
2022-09-27T17:43:44.980Z,270
2022-09-27T17:48:45.095Z,248
2022-09-27T17:53:45.265Z,248
2022-09-27T17:58:44.711Z,248
2022-09-27T18:03:44.933Z,248
2022-09-27T18:08:45.069Z,225
2022-09-27T18:13:45.323Z,225
2022-09-27T18:18:44.605Z,248
2022-09-27T18:23:44.999Z,248
2022-09-27T18:28:44.627Z,225
2022-09-27T18:33:45.042Z,225
2022-09-27T18:38:45.240Z,248
2022-09-27T18:43:45.402Z,248
2022-09-27T18:48:44.536Z,248
2022-09-27T18:53:44.781Z,248
2022-09-27T18:58:44.868Z,270
2022-09-27T19:03:45.126Z,270
2022-09-27T19:08:45.183Z,270
2022-09-27T19:13:51.802Z,270
2022-09-27T19:18:45.231Z,248
2022-09-27T19:23:45.357Z,248
2022-09-27T19:28:44.532Z,225
2022-09-27T19:33:44.728Z,225
2022-09-27T19:38:44.816Z,225
2022-09-27T19:43:44.725Z,225
2022-09-27T19:48:44.758Z,225
2022-09-27T19:53:45.041Z,225
2022-09-27T19:58:45.310Z,248
2022-09-27T20:03:44.424Z,248
2022-09-27T20:08:44.934Z,225
2022-09-27T20:13:45.199Z,225
2022-09-27T20:18:45.418Z,248
2022-09-27T20:23:44.540Z,248
2022-09-27T20:28:44.647Z,180
2022-09-27T20:33:44.677Z,180
2022-09-27T20:38:44.899Z,202
2022-09-27T20:43:45.030Z,202
2022-09-27T20:48:45.111Z,180
2022-09-27T20:53:44.378Z,180
2022-09-27T20:58:44.762Z,180
2022-09-27T21:03:44.544Z,180
2022-09-27T21:08:45.203Z,248
2022-09-27T21:13:45.390Z,248
2022-09-27T21:18:45.195Z,225
2022-09-27T21:23:45.396Z,225
2022-09-27T21:28:44.497Z,248
2022-09-27T21:33:44.732Z,248
2022-09-27T21:38:44.882Z,202
2022-09-27T21:43:44.713Z,202
2022-09-27T21:48:45.074Z,202
2022-09-27T21:53:45.150Z,202
2022-09-27T21:58:44.545Z,248
2022-09-27T22:03:45.374Z,248
2022-09-27T22:08:44.812Z,248
2022-09-27T22:13:44.714Z,248
2022-09-27T22:18:44.854Z,248
2022-09-27T22:23:45.044Z,248
2022-09-27T22:28:45.174Z,225
2022-09-27T22:33:45.401Z,225
2022-09-27T22:38:44.554Z,270
2022-09-27T22:43:45.038Z,270
2022-09-27T22:48:45.198Z,270
2022-09-27T22:53:45.423Z,270
2022-09-27T22:58:44.651Z,248
2022-09-27T23:03:44.857Z,248
2022-09-27T23:08:44.925Z,225
2022-09-27T23:13:45.211Z,225
2022-09-27T23:18:45.349Z,248
2022-09-27T23:23:44.493Z,248
2022-09-27T23:28:44.718Z,248
2022-09-27T23:33:44.798Z,248
2022-09-27T23:38:44.912Z,225
2022-09-27T23:43:45.199Z,225
2022-09-27T23:48:45.268Z,225
2022-09-27T23:53:45.512Z,225
2022-09-27T23:58:44.562Z,180
